sensor_id;sensor_type;location;lat;lon;timestamp;P1;P2;P0
30342;PMS5003;17145;49.902;8.680;2023-03-12T00:02:11;9;7;
30342;PMS5003;17145;49.902;8.680;2023-03-12T00:04:39;5;5;
30342;PMS5003;17145;49.902;8.680;2023-03-12T00:07:07;4;4;
30342;PMS5003;17145;49.902;8.680;2023-03-12T00:09:34;9;8;
30342;PMS5003;17145;49.902;8.680;2023-03-12T00:12:03;7;7;
30342;PMS5003;17145;49.902;8.680;2023-03-12T00:14:32;5;5;
30342;PMS5003;17145;49.902;8.680;2023-03-12T00:16:59;5;5;
30342;PMS5003;17145;49.902;8.680;2023-03-12T00:19:27;6;5;
30342;PMS5003;17145;49.902;8.680;2023-03-12T00:21:55;17;5;
30342;PMS5003;17145;49.902;8.680;2023-03-12T00:24:22;7;7;
30342;PMS5003;17145;49.902;8.680;2023-03-12T00:26:50;7;5;
30342;PMS5003;17145;49.902;8.680;2023-03-12T00:29:17;4;4;
30342;PMS5003;17145;49.902;8.680;2023-03-12T00:31:45;5;5;
30342;PMS5003;17145;49.902;8.680;2023-03-12T00:34:12;3;3;
30342;PMS5003;17145;49.902;8.680;2023-03-12T00:36:39;4;4;
30342;PMS5003;17145;49.902;8.680;2023-03-12T00:39:07;4;4;
30342;PMS5003;17145;49.902;8.680;2023-03-12T00:41:35;4;4;
30342;PMS5003;17145;49.902;8.680;2023-03-12T00:44:03;5;5;
30342;PMS5003;17145;49.902;8.680;2023-03-12T00:46:30;6;5;
30342;PMS5003;17145;49.902;8.680;2023-03-12T00:48:58;5;4;
30342;PMS5003;17145;49.902;8.680;2023-03-12T00:51:25;9;6;
30342;PMS5003;17145;49.902;8.680;2023-03-12T00:53:53;6;5;
30342;PMS5003;17145;49.902;8.680;2023-03-12T00:56:20;6;5;
30342;PMS5003;17145;49.902;8.680;2023-03-12T00:58:48;5;5;
30342;PMS5003;17145;49.902;8.680;2023-03-12T01:01:15;5;4;
30342;PMS5003;17145;49.902;8.680;2023-03-12T01:03:44;3;3;
30342;PMS5003;17145;49.902;8.680;2023-03-12T01:06:11;5;4;
30342;PMS5003;17145;49.902;8.680;2023-03-12T01:08:39;5;5;
30342;PMS5003;17145;49.902;8.680;2023-03-12T01:11:06;8;6;
30342;PMS5003;17145;49.902;8.680;2023-03-12T01:13:38;8;6;
30342;PMS5003;17145;49.902;8.680;2023-03-12T01:16:05;7;6;
30342;PMS5003;17145;49.902;8.680;2023-03-12T01:18:34;5;5;
30342;PMS5003;17145;49.902;8.680;2023-03-12T01:21:02;8;8;
30342;PMS5003;17145;49.902;8.680;2023-03-12T01:23:30;10;7;
30342;PMS5003;17145;49.902;8.680;2023-03-12T01:25:58;6;6;
30342;PMS5003;17145;49.902;8.680;2023-03-12T01:28:26;14;9;
30342;PMS5003;17145;49.902;8.680;2023-03-12T01:30:53;6;6;
30342;PMS5003;17145;49.902;8.680;2023-03-12T01:33:20;6;6;
30342;PMS5003;17145;49.902;8.680;2023-03-12T01:35:48;9;7;
30342;PMS5003;17145;49.902;8.680;2023-03-12T01:38:15;6;6;
30342;PMS5003;17145;49.902;8.680;2023-03-12T01:40:43;6;6;
30342;PMS5003;17145;49.902;8.680;2023-03-12T01:43:20;9;5;
30342;PMS5003;17145;49.902;8.680;2023-03-12T01:48:32;6;6;
30342;PMS5003;17145;49.902;8.680;2023-03-12T01:51:03;6;6;
30342;PMS5003;17145;49.902;8.680;2023-03-12T01:53:34;11;11;
30342;PMS5003;17145;49.902;8.680;2023-03-12T01:56:04;5;5;
30342;PMS5003;17145;49.902;8.680;2023-03-12T01:58:34;7;4;
30342;PMS5003;17145;49.902;8.680;2023-03-12T02:01:05;7;6;
30342;PMS5003;17145;49.902;8.680;2023-03-12T02:03:33;5;5;
30342;PMS5003;17145;49.902;8.680;2023-03-12T02:06:03;5;4;
30342;PMS5003;17145;49.902;8.680;2023-03-12T02:08:34;5;5;
30342;PMS5003;17145;49.902;8.680;2023-03-12T02:11:04;4;4;
30342;PMS5003;17145;49.902;8.680;2023-03-12T02:13:32;4;4;
30342;PMS5003;17145;49.902;8.680;2023-03-12T02:15:59;5;4;
30342;PMS5003;17145;49.902;8.680;2023-03-12T02:18:27;4;4;
30342;PMS5003;17145;49.902;8.680;2023-03-12T02:20:55;4;4;
30342;PMS5003;17145;49.902;8.680;2023-03-12T02:23:31;3;3;
30342;PMS5003;17145;49.902;8.680;2023-03-12T02:26:04;4;4;
30342;PMS5003;17145;49.902;8.680;2023-03-12T02:28:33;9;8;
30342;PMS5003;17145;49.902;8.680;2023-03-12T02:31:03;9;9;
30342;PMS5003;17145;49.902;8.680;2023-03-12T02:33:30;5;5;
30342;PMS5003;17145;49.902;8.680;2023-03-12T02:35:58;4;3;
30342;PMS5003;17145;49.902;8.680;2023-03-12T02:41:02;5;5;
30342;PMS5003;17145;49.902;8.680;2023-03-12T02:43:35;4;4;
30342;PMS5003;17145;49.902;8.680;2023-03-12T02:46:04;4;4;
30342;PMS5003;17145;49.902;8.680;2023-03-12T02:48:32;4;4;
30342;PMS5003;17145;49.902;8.680;2023-03-12T02:50:59;9;8;
30342;PMS5003;17145;49.902;8.680;2023-03-12T02:53:27;15;14;
30342;PMS5003;17145;49.902;8.680;2023-03-12T02:55:55;3;3;
30342;PMS5003;17145;49.902;8.680;2023-03-12T02:58:23;4;3;
30342;PMS5003;17145;49.902;8.680;2023-03-12T03:00:50;2;2;
30342;PMS5003;17145;49.902;8.680;2023-03-12T03:03:17;3;3;
30342;PMS5003;17145;49.902;8.680;2023-03-12T03:05:45;4;4;
30342;PMS5003;17145;49.902;8.680;2023-03-12T03:08:13;4;4;
30342;PMS5003;17145;49.902;8.680;2023-03-12T03:10:40;4;4;
30342;PMS5003;17145;49.902;8.680;2023-03-12T03:13:07;3;3;
30342;PMS5003;17145;49.902;8.680;2023-03-12T03:15:35;4;3;
30342;PMS5003;17145;49.902;8.680;2023-03-12T03:18:03;5;4;
30342;PMS5003;17145;49.902;8.680;2023-03-12T03:20:31;5;4;
30342;PMS5003;17145;49.902;8.680;2023-03-12T03:22:58;4;4;
30342;PMS5003;17145;49.902;8.680;2023-03-12T03:25:26;3;3;
30342;PMS5003;17145;49.902;8.680;2023-03-12T03:27:53;4;3;
30342;PMS5003;17145;49.902;8.680;2023-03-12T03:30:21;3;3;
30342;PMS5003;17145;49.902;8.680;2023-03-12T03:32:49;3;3;
30342;PMS5003;17145;49.902;8.680;2023-03-12T03:35:17;5;4;
30342;PMS5003;17145;49.902;8.680;2023-03-12T03:37:44;3;3;
30342;PMS5003;17145;49.902;8.680;2023-03-12T03:40:12;3;3;
30342;PMS5003;17145;49.902;8.680;2023-03-12T03:42:39;3;3;
30342;PMS5003;17145;49.902;8.680;2023-03-12T03:45:07;4;3;
30342;PMS5003;17145;49.902;8.680;2023-03-12T03:47:35;3;3;
30342;PMS5003;17145;49.902;8.680;2023-03-12T03:50:03;4;4;
30342;PMS5003;17145;49.902;8.680;2023-03-12T03:52:31;3;3;
30342;PMS5003;17145;49.902;8.680;2023-03-12T03:54:59;3;2;
30342;PMS5003;17145;49.902;8.680;2023-03-12T03:57:27;5;5;
30342;PMS5003;17145;49.902;8.680;2023-03-12T03:59:55;5;5;
30342;PMS5003;17145;49.902;8.680;2023-03-12T04:02:22;4;4;
30342;PMS5003;17145;49.902;8.680;2023-03-12T04:04:51;5;4;
30342;PMS5003;17145;49.902;8.680;2023-03-12T04:07:18;4;4;
30342;PMS5003;17145;49.902;8.680;2023-03-12T04:09:46;5;4;
30342;PMS5003;17145;49.902;8.680;2023-03-12T04:12:14;4;4;
30342;PMS5003;17145;49.902;8.680;2023-03-12T04:14:41;5;3;
30342;PMS5003;17145;49.902;8.680;2023-03-12T04:17:08;4;3;
30342;PMS5003;17145;49.902;8.680;2023-03-12T04:19:36;4;3;
30342;PMS5003;17145;49.902;8.680;2023-03-12T04:22:03;3;3;
30342;PMS5003;17145;49.902;8.680;2023-03-12T04:24:31;4;3;
30342;PMS5003;17145;49.902;8.680;2023-03-12T04:26:58;4;3;
30342;PMS5003;17145;49.902;8.680;2023-03-12T04:29:26;5;4;
30342;PMS5003;17145;49.902;8.680;2023-03-12T04:31:53;3;3;
30342;PMS5003;17145;49.902;8.680;2023-03-12T04:34:20;6;6;
30342;PMS5003;17145;49.902;8.680;2023-03-12T04:36:48;9;5;
30342;PMS5003;17145;49.902;8.680;2023-03-12T04:39:16;4;4;
30342;PMS5003;17145;49.902;8.680;2023-03-12T04:41:44;4;3;
30342;PMS5003;17145;49.902;8.680;2023-03-12T04:44:12;4;4;
30342;PMS5003;17145;49.902;8.680;2023-03-12T04:46:41;3;2;
30342;PMS5003;17145;49.902;8.680;2023-03-12T04:49:08;4;4;
30342;PMS5003;17145;49.902;8.680;2023-03-12T04:51:36;3;3;
30342;PMS5003;17145;49.902;8.680;2023-03-12T04:54:03;4;3;
30342;PMS5003;17145;49.902;8.680;2023-03-12T04:56:31;5;4;
30342;PMS5003;17145;49.902;8.680;2023-03-12T04:58:58;4;3;
30342;PMS5003;17145;49.902;8.680;2023-03-12T05:01:26;6;4;
30342;PMS5003;17145;49.902;8.680;2023-03-12T05:03:56;4;3;
30342;PMS5003;17145;49.902;8.680;2023-03-12T05:06:23;5;3;
30342;PMS5003;17145;49.902;8.680;2023-03-12T05:08:51;5;4;
30342;PMS5003;17145;49.902;8.680;2023-03-12T05:11:19;3;3;
30342;PMS5003;17145;49.902;8.680;2023-03-12T05:13:47;4;4;
30342;PMS5003;17145;49.902;8.680;2023-03-12T05:16:15;3;2;
30342;PMS5003;17145;49.902;8.680;2023-03-12T05:18:44;4;4;
30342;PMS5003;17145;49.902;8.680;2023-03-12T05:21:12;3;3;
30342;PMS5003;17145;49.902;8.680;2023-03-12T05:23:41;4;3;
30342;PMS5003;17145;49.902;8.680;2023-03-12T05:28:43;3;3;
30342;PMS5003;17145;49.902;8.680;2023-03-12T05:31:11;2;2;
30342;PMS5003;17145;49.902;8.680;2023-03-12T05:33:39;5;3;
30342;PMS5003;17145;49.902;8.680;2023-03-12T05:36:07;5;3;
30342;PMS5003;17145;49.902;8.680;2023-03-12T05:38:35;4;3;
30342;PMS5003;17145;49.902;8.680;2023-03-12T05:41:03;4;3;
30342;PMS5003;17145;49.902;8.680;2023-03-12T05:43:31;4;4;
30342;PMS5003;17145;49.902;8.680;2023-03-12T05:45:59;4;4;
30342;PMS5003;17145;49.902;8.680;2023-03-12T05:48:27;4;3;
30342;PMS5003;17145;49.902;8.680;2023-03-12T05:50:55;5;4;
30342;PMS5003;17145;49.902;8.680;2023-03-12T05:53:23;6;4;
30342;PMS5003;17145;49.902;8.680;2023-03-12T05:55:51;4;4;
30342;PMS5003;17145;49.902;8.680;2023-03-12T05:58:19;4;4;
30342;PMS5003;17145;49.902;8.680;2023-03-12T06:00:46;3;3;
30342;PMS5003;17145;49.902;8.680;2023-03-12T06:03:14;4;4;
30342;PMS5003;17145;49.902;8.680;2023-03-12T06:05:43;6;5;
30342;PMS5003;17145;49.902;8.680;2023-03-12T06:08:10;6;5;
30342;PMS5003;17145;49.902;8.680;2023-03-12T06:10:38;4;3;
30342;PMS5003;17145;49.902;8.680;2023-03-12T06:13:05;6;6;
30342;PMS5003;17145;49.902;8.680;2023-03-12T06:15:33;4;4;
30342;PMS5003;17145;49.902;8.680;2023-03-12T06:18:00;3;3;
30342;PMS5003;17145;49.902;8.680;2023-03-12T06:20:28;2;2;
30342;PMS5003;17145;49.902;8.680;2023-03-12T06:22:55;5;4;
30342;PMS5003;17145;49.902;8.680;2023-03-12T06:25:22;4;3;
30342;PMS5003;17145;49.902;8.680;2023-03-12T06:27:50;4;4;
30342;PMS5003;17145;49.902;8.680;2023-03-12T06:30:17;6;4;
30342;PMS5003;17145;49.902;8.680;2023-03-12T06:32:45;2;2;
30342;PMS5003;17145;49.902;8.680;2023-03-12T06:35:12;6;5;
30342;PMS5003;17145;49.902;8.680;2023-03-12T06:37:40;6;6;
30342;PMS5003;17145;49.902;8.680;2023-03-12T06:40:08;6;5;
30342;PMS5003;17145;49.902;8.680;2023-03-12T06:42:36;4;4;
30342;PMS5003;17145;49.902;8.680;2023-03-12T06:45:04;4;3;
30342;PMS5003;17145;49.902;8.680;2023-03-12T06:47:33;3;3;
30342;PMS5003;17145;49.902;8.680;2023-03-12T06:50:01;4;4;
30342;PMS5003;17145;49.902;8.680;2023-03-12T06:52:28;5;4;
30342;PMS5003;17145;49.902;8.680;2023-03-12T06:54:55;5;5;
30342;PMS5003;17145;49.902;8.680;2023-03-12T06:57:23;5;3;
30342;PMS5003;17145;49.902;8.680;2023-03-12T06:59:50;5;5;
30342;PMS5003;17145;49.902;8.680;2023-03-12T07:02:18;3;3;
30342;PMS5003;17145;49.902;8.680;2023-03-12T07:04:45;6;5;
30342;PMS5003;17145;49.902;8.680;2023-03-12T07:07:13;5;4;
30342;PMS5003;17145;49.902;8.680;2023-03-12T07:09:41;4;3;
30342;PMS5003;17145;49.902;8.680;2023-03-12T07:12:08;6;5;
30342;PMS5003;17145;49.902;8.680;2023-03-12T07:14:35;6;5;
30342;PMS5003;17145;49.902;8.680;2023-03-12T07:17:03;5;5;
30342;PMS5003;17145;49.902;8.680;2023-03-12T07:19:31;5;5;
30342;PMS5003;17145;49.902;8.680;2023-03-12T07:21:58;5;5;
30342;PMS5003;17145;49.902;8.680;2023-03-12T07:24:25;5;4;
30342;PMS5003;17145;49.902;8.680;2023-03-12T07:26:53;5;3;
30342;PMS5003;17145;49.902;8.680;2023-03-12T07:29:20;4;3;
30342;PMS5003;17145;49.902;8.680;2023-03-12T07:31:48;4;3;
30342;PMS5003;17145;49.902;8.680;2023-03-12T07:34:15;3;2;
30342;PMS5003;17145;49.902;8.680;2023-03-12T07:36:42;4;4;
30342;PMS5003;17145;49.902;8.680;2023-03-12T07:39:10;4;4;
30342;PMS5003;17145;49.902;8.680;2023-03-12T07:41:37;3;3;
30342;PMS5003;17145;49.902;8.680;2023-03-12T07:44:04;5;5;
30342;PMS5003;17145;49.902;8.680;2023-03-12T07:46:32;4;3;
30342;PMS5003;17145;49.902;8.680;2023-03-12T07:48:59;5;5;
30342;PMS5003;17145;49.902;8.680;2023-03-12T07:51:27;4;4;
30342;PMS5003;17145;49.902;8.680;2023-03-12T07:53:55;6;5;
30342;PMS5003;17145;49.902;8.680;2023-03-12T07:56:22;5;4;
30342;PMS5003;17145;49.902;8.680;2023-03-12T07:58:50;6;5;
30342;PMS5003;17145;49.902;8.680;2023-03-12T08:01:17;8;6;
30342;PMS5003;17145;49.902;8.680;2023-03-12T08:03:44;5;4;
30342;PMS5003;17145;49.902;8.680;2023-03-12T08:06:12;5;5;
30342;PMS5003;17145;49.902;8.680;2023-03-12T08:08:39;5;4;
30342;PMS5003;17145;49.902;8.680;2023-03-12T08:11:07;6;4;
30342;PMS5003;17145;49.902;8.680;2023-03-12T08:13:35;4;4;
30342;PMS5003;17145;49.902;8.680;2023-03-12T08:16:02;4;4;
30342;PMS5003;17145;49.902;8.680;2023-03-12T08:18:30;4;4;
30342;PMS5003;17145;49.902;8.680;2023-03-12T08:20:57;5;4;
30342;PMS5003;17145;49.902;8.680;2023-03-12T08:23:25;5;5;
30342;PMS5003;17145;49.902;8.680;2023-03-12T08:25:52;4;3;
30342;PMS5003;17145;49.902;8.680;2023-03-12T08:28:21;3;3;
30342;PMS5003;17145;49.902;8.680;2023-03-12T08:30:50;5;4;
30342;PMS5003;17145;49.902;8.680;2023-03-12T08:33:19;9;5;
30342;PMS5003;17145;49.902;8.680;2023-03-12T08:35:47;6;6;
30342;PMS5003;17145;49.902;8.680;2023-03-12T08:38:15;4;4;
30342;PMS5003;17145;49.902;8.680;2023-03-12T08:40:43;8;5;
30342;PMS5003;17145;49.902;8.680;2023-03-12T08:43:10;5;4;
30342;PMS5003;17145;49.902;8.680;2023-03-12T08:45:38;5;5;
30342;PMS5003;17145;49.902;8.680;2023-03-12T08:48:06;5;5;
30342;PMS5003;17145;49.902;8.680;2023-03-12T08:50:34;8;5;
30342;PMS5003;17145;49.902;8.680;2023-03-12T08:53:01;9;6;
30342;PMS5003;17145;49.902;8.680;2023-03-12T08:55:28;6;5;
30342;PMS5003;17145;49.902;8.680;2023-03-12T08:57:56;8;5;
30342;PMS5003;17145;49.902;8.680;2023-03-12T09:00:23;8;5;
30342;PMS5003;17145;49.902;8.680;2023-03-12T09:02:51;8;5;
30342;PMS5003;17145;49.902;8.680;2023-03-12T09:05:18;4;4;
30342;PMS5003;17145;49.902;8.680;2023-03-12T09:07:46;4;4;
30342;PMS5003;17145;49.902;8.680;2023-03-12T09:10:13;5;4;
30342;PMS5003;17145;49.902;8.680;2023-03-12T09:12:41;6;5;
30342;PMS5003;17145;49.902;8.680;2023-03-12T09:15:09;6;6;
30342;PMS5003;17145;49.902;8.680;2023-03-12T09:17:37;6;6;
30342;PMS5003;17145;49.902;8.680;2023-03-12T09:20:05;6;6;
30342;PMS5003;17145;49.902;8.680;2023-03-12T09:22:34;6;4;
30342;PMS5003;17145;49.902;8.680;2023-03-12T09:25:02;6;6;
30342;PMS5003;17145;49.902;8.680;2023-03-12T09:27:34;6;5;
30342;PMS5003;17145;49.902;8.680;2023-03-12T09:30:02;5;4;
30342;PMS5003;17145;49.902;8.680;2023-03-12T09:32:31;6;5;
30342;PMS5003;17145;49.902;8.680;2023-03-12T09:34:58;5;5;
30342;PMS5003;17145;49.902;8.680;2023-03-12T09:37:26;6;5;
30342;PMS5003;17145;49.902;8.680;2023-03-12T09:39:54;8;6;
30342;PMS5003;17145;49.902;8.680;2023-03-12T09:42:22;10;6;
30342;PMS5003;17145;49.902;8.680;2023-03-12T09:44:51;5;4;
30342;PMS5003;17145;49.902;8.680;2023-03-12T09:47:24;8;6;
30342;PMS5003;17145;49.902;8.680;2023-03-12T09:49:55;8;6;
30342;PMS5003;17145;49.902;8.680;2023-03-12T09:52:30;8;6;
30342;PMS5003;17145;49.902;8.680;2023-03-12T09:55:04;5;5;
30342;PMS5003;17145;49.902;8.680;2023-03-12T09:57:37;6;5;
30342;PMS5003;17145;49.902;8.680;2023-03-12T10:00:06;5;4;
30342;PMS5003;17145;49.902;8.680;2023-03-12T10:02:49;9;8;
30342;PMS5003;17145;49.902;8.680;2023-03-12T10:05:28;5;5;
30342;PMS5003;17145;49.902;8.680;2023-03-12T10:08:03;9;8;
30342;PMS5003;17145;49.902;8.680;2023-03-12T10:10:43;5;5;
30342;PMS5003;17145;49.902;8.680;2023-03-12T10:13:25;5;4;
30342;PMS5003;17145;49.902;8.680;2023-03-12T10:16:05;6;6;
30342;PMS5003;17145;49.902;8.680;2023-03-12T10:18:47;5;5;
30342;PMS5003;17145;49.902;8.680;2023-03-12T10:21:27;8;6;
30342;PMS5003;17145;49.902;8.680;2023-03-12T10:24:05;8;6;
30342;PMS5003;17145;49.902;8.680;2023-03-12T10:26:43;6;6;
30342;PMS5003;17145;49.902;8.680;2023-03-12T10:29:16;6;6;
30342;PMS5003;17145;49.902;8.680;2023-03-12T10:31:50;6;6;
30342;PMS5003;17145;49.902;8.680;2023-03-12T10:34:22;6;6;
30342;PMS5003;17145;49.902;8.680;2023-03-12T10:36:57;6;5;
30342;PMS5003;17145;49.902;8.680;2023-03-12T10:39:29;6;6;
30342;PMS5003;17145;49.902;8.680;2023-03-12T10:41:57;6;6;
30342;PMS5003;17145;49.902;8.680;2023-03-12T10:44:26;8;6;
30342;PMS5003;17145;49.902;8.680;2023-03-12T10:46:58;6;6;
30342;PMS5003;17145;49.902;8.680;2023-03-12T10:49:33;6;6;
30342;PMS5003;17145;49.902;8.680;2023-03-12T10:52:04;5;5;
30342;PMS5003;17145;49.902;8.680;2023-03-12T10:54:38;5;5;
30342;PMS5003;17145;49.902;8.680;2023-03-12T10:57:07;6;6;
30342;PMS5003;17145;49.902;8.680;2023-03-12T10:59:36;8;8;
30342;PMS5003;17145;49.902;8.680;2023-03-12T11:04:49;6;5;
30342;PMS5003;17145;49.902;8.680;2023-03-12T11:07:18;8;8;
30342;PMS5003;17145;49.902;8.680;2023-03-12T11:12:35;8;6;
30342;PMS5003;17145;49.902;8.680;2023-03-12T11:17:45;8;6;
30342;PMS5003;17145;49.902;8.680;2023-03-12T11:22:51;5;5;
30342;PMS5003;17145;49.902;8.680;2023-03-12T11:25:20;8;8;
30342;PMS5003;17145;49.902;8.680;2023-03-12T11:27:50;8;6;
30342;PMS5003;17145;49.902;8.680;2023-03-12T11:30:21;6;5;
30342;PMS5003;17145;49.902;8.680;2023-03-12T11:32:52;10;8;
30342;PMS5003;17145;49.902;8.680;2023-03-12T11:35:20;9;8;
30342;PMS5003;17145;49.902;8.680;2023-03-12T11:37:58;6;6;
30342;PMS5003;17145;49.902;8.680;2023-03-12T11:40:33;8;6;
30342;PMS5003;17145;49.902;8.680;2023-03-12T11:43:17;5;5;
30342;PMS5003;17145;49.902;8.680;2023-03-12T11:46:03;9;9;
30342;PMS5003;17145;49.902;8.680;2023-03-12T11:48:40;9;9;
30342;PMS5003;17145;49.902;8.680;2023-03-12T11:51:20;6;6;
30342;PMS5003;17145;49.902;8.680;2023-03-12T11:54:01;9;9;
30342;PMS5003;17145;49.902;8.680;2023-03-12T11:56:41;8;8;
30342;PMS5003;17145;49.902;8.680;2023-03-12T11:59:21;6;6;
30342;PMS5003;17145;49.902;8.680;2023-03-12T12:02:02;8;8;
30342;PMS5003;17145;49.902;8.680;2023-03-12T12:04:46;9;8;
30342;PMS5003;17145;49.902;8.680;2023-03-12T12:07:28;11;9;
30342;PMS5003;17145;49.902;8.680;2023-03-12T12:10:07;9;8;
30342;PMS5003;17145;49.902;8.680;2023-03-12T12:12:46;10;10;
30342;PMS5003;17145;49.902;8.680;2023-03-12T12:15:23;10;9;
30342;PMS5003;17145;49.902;8.680;2023-03-12T12:18:01;10;10;
30342;PMS5003;17145;49.902;8.680;2023-03-12T12:20:43;12;11;
30342;PMS5003;17145;49.902;8.680;2023-03-12T12:23:19;13;13;
30342;PMS5003;17145;49.902;8.680;2023-03-12T12:26:01;11;11;
30342;PMS5003;17145;49.902;8.680;2023-03-12T12:28:36;12;12;
30342;PMS5003;17145;49.902;8.680;2023-03-12T12:31:18;13;13;
30342;PMS5003;17145;49.902;8.680;2023-03-12T12:34:00;16;16;
30342;PMS5003;17145;49.902;8.680;2023-03-12T12:36:37;18;18;
30342;PMS5003;17145;49.902;8.680;2023-03-12T12:39:07;15;15;
30342;PMS5003;17145;49.902;8.680;2023-03-12T12:41:39;11;11;
30342;PMS5003;17145;49.902;8.680;2023-03-12T12:44:11;16;15;
30342;PMS5003;17145;49.902;8.680;2023-03-12T12:46:43;19;18;
30342;PMS5003;17145;49.902;8.680;2023-03-12T12:49:17;17;16;
30342;PMS5003;17145;49.902;8.680;2023-03-12T12:51:50;19;17;
30342;PMS5003;17145;49.902;8.680;2023-03-12T12:54:25;17;17;
30342;PMS5003;17145;49.902;8.680;2023-03-12T12:57:01;20;20;
30342;PMS5003;17145;49.902;8.680;2023-03-12T12:59:35;30;30;
30342;PMS5003;17145;49.902;8.680;2023-03-12T13:04:42;35;34;
30342;PMS5003;17145;49.902;8.680;2023-03-12T13:09:57;20;19;
30342;PMS5003;17145;49.902;8.680;2023-03-12T13:12:26;18;18;
30342;PMS5003;17145;49.902;8.680;2023-03-12T13:14:56;18;18;
30342;PMS5003;17145;49.902;8.680;2023-03-12T13:17:27;18;18;
30342;PMS5003;17145;49.902;8.680;2023-03-12T13:19:58;13;13;
30342;PMS5003;17145;49.902;8.680;2023-03-12T13:22:39;17;16;
30342;PMS5003;17145;49.902;8.680;2023-03-12T13:25:19;11;11;
30342;PMS5003;17145;49.902;8.680;2023-03-12T13:27:57;10;10;
30342;PMS5003;17145;49.902;8.680;2023-03-12T13:33:11;9;9;
30342;PMS5003;17145;49.902;8.680;2023-03-12T13:35:40;8;8;
30342;PMS5003;17145;49.902;8.680;2023-03-12T13:38:09;6;6;
30342;PMS5003;17145;49.902;8.680;2023-03-12T13:40:39;5;4;
30342;PMS5003;17145;49.902;8.680;2023-03-12T13:43:29;7;4;
30342;PMS5003;17145;49.902;8.680;2023-03-12T13:46:05;6;1;
30342;PMS5003;17145;49.902;8.680;2023-03-12T13:48:34;4;4;
30342;PMS5003;17145;49.902;8.680;2023-03-12T13:51:09;4;4;
30342;PMS5003;17145;49.902;8.680;2023-03-12T13:53:42;5;5;
30342;PMS5003;17145;49.902;8.680;2023-03-12T13:56:16;8;6;
30342;PMS5003;17145;49.902;8.680;2023-03-12T13:58:47;9;6;
30342;PMS5003;17145;49.902;8.680;2023-03-12T14:01:22;7;7;
30342;PMS5003;17145;49.902;8.680;2023-03-12T14:03:53;6;6;
30342;PMS5003;17145;49.902;8.680;2023-03-12T14:06:25;9;8;
30342;PMS5003;17145;49.902;8.680;2023-03-12T14:09:02;8;8;
30342;PMS5003;17145;49.902;8.680;2023-03-12T14:11:43;8;8;
30342;PMS5003;17145;49.902;8.680;2023-03-12T14:14:25;3;3;
30342;PMS5003;17145;49.902;8.680;2023-03-12T14:17:02;2;2;
30342;PMS5003;17145;49.902;8.680;2023-03-12T14:19:31;4;4;
30342;PMS5003;17145;49.902;8.680;2023-03-12T14:22:01;4;4;
30342;PMS5003;17145;49.902;8.680;2023-03-12T14:24:32;3;3;
30342;PMS5003;17145;49.902;8.680;2023-03-12T14:27:03;4;3;
30342;PMS5003;17145;49.902;8.680;2023-03-12T14:29:34;2;2;
30342;PMS5003;17145;49.902;8.680;2023-03-12T14:32:04;2;2;
30342;PMS5003;17145;49.902;8.680;2023-03-12T14:34:37;3;2;
30342;PMS5003;17145;49.902;8.680;2023-03-12T14:37:10;3;2;
30342;PMS5003;17145;49.902;8.680;2023-03-12T14:39:42;4;3;
30342;PMS5003;17145;49.902;8.680;2023-03-12T14:42:17;2;2;
30342;PMS5003;17145;49.902;8.680;2023-03-12T14:44:52;4;4;
30342;PMS5003;17145;49.902;8.680;2023-03-12T14:47:23;4;4;
30342;PMS5003;17145;49.902;8.680;2023-03-12T14:49:50;3;3;
30342;PMS5003;17145;49.902;8.680;2023-03-12T14:52:20;4;4;
30342;PMS5003;17145;49.902;8.680;2023-03-12T14:54:52;8;8;
30342;PMS5003;17145;49.902;8.680;2023-03-12T14:57:22;8;8;
30342;PMS5003;17145;49.902;8.680;2023-03-12T14:59:51;9;6;
30342;PMS5003;17145;49.902;8.680;2023-03-12T15:02:19;3;2;
30342;PMS5003;17145;49.902;8.680;2023-03-12T15:04:47;2;2;
30342;PMS5003;17145;49.902;8.680;2023-03-12T15:07:18;1;1;
30342;PMS5003;17145;49.902;8.680;2023-03-12T15:09:49;1;1;
30342;PMS5003;17145;49.902;8.680;2023-03-12T15:12:19;1;1;
30342;PMS5003;17145;49.902;8.680;2023-03-12T15:14:49;1;1;
30342;PMS5003;17145;49.902;8.680;2023-03-12T15:17:21;1;1;
30342;PMS5003;17145;49.902;8.680;2023-03-12T15:19:53;1;1;
30342;PMS5003;17145;49.902;8.680;2023-03-12T15:22:22;4;3;
30342;PMS5003;17145;49.902;8.680;2023-03-12T15:24:52;1;1;
30342;PMS5003;17145;49.902;8.680;2023-03-12T15:27:21;1;1;
30342;PMS5003;17145;49.902;8.680;2023-03-12T15:29:58;1;1;
30342;PMS5003;17145;49.902;8.680;2023-03-12T15:32:26;1;1;
30342;PMS5003;17145;49.902;8.680;2023-03-12T15:34:54;2;2;
30342;PMS5003;17145;49.902;8.680;2023-03-12T15:37:23;2;2;
30342;PMS5003;17145;49.902;8.680;2023-03-12T15:39:52;3;2;
30342;PMS5003;17145;49.902;8.680;2023-03-12T15:42:21;1;1;
30342;PMS5003;17145;49.902;8.680;2023-03-12T15:44:51;1;1;
30342;PMS5003;17145;49.902;8.680;2023-03-12T15:47:21;1;1;
30342;PMS5003;17145;49.902;8.680;2023-03-12T15:49:52;1;1;
30342;PMS5003;17145;49.902;8.680;2023-03-12T15:52:24;1;1;
30342;PMS5003;17145;49.902;8.680;2023-03-12T15:54:58;2;1;
30342;PMS5003;17145;49.902;8.680;2023-03-12T15:57:27;1;1;
30342;PMS5003;17145;49.902;8.680;2023-03-12T16:02:46;1;1;
30342;PMS5003;17145;49.902;8.680;2023-03-12T16:05:15;2;1;
30342;PMS5003;17145;49.902;8.680;2023-03-12T16:07:43;1;1;
30342;PMS5003;17145;49.902;8.680;2023-03-12T16:10:11;2;2;
30342;PMS5003;17145;49.902;8.680;2023-03-12T16:12:40;1;1;
30342;PMS5003;17145;49.902;8.680;2023-03-12T16:15:12;1;1;
30342;PMS5003;17145;49.902;8.680;2023-03-12T16:17:42;1;1;
30342;PMS5003;17145;49.902;8.680;2023-03-12T16:20:11;1;1;
30342;PMS5003;17145;49.902;8.680;2023-03-12T16:22:40;1;1;
30342;PMS5003;17145;49.902;8.680;2023-03-12T16:25:08;0;0;
30342;PMS5003;17145;49.902;8.680;2023-03-12T16:27:36;1;1;
30342;PMS5003;17145;49.902;8.680;2023-03-12T16:30:12;2;1;
30342;PMS5003;17145;49.902;8.680;2023-03-12T16:32:42;1;1;
30342;PMS5003;17145;49.902;8.680;2023-03-12T16:35:10;1;1;
30342;PMS5003;17145;49.902;8.680;2023-03-12T16:37:40;1;1;
30342;PMS5003;17145;49.902;8.680;2023-03-12T16:40:08;1;1;
30342;PMS5003;17145;49.902;8.680;2023-03-12T16:42:37;2;1;
30342;PMS5003;17145;49.902;8.680;2023-03-12T16:45:08;0;0;
30342;PMS5003;17145;49.902;8.680;2023-03-12T16:47:38;2;1;
30342;PMS5003;17145;49.902;8.680;2023-03-12T16:50:11;2;2;
30342;PMS5003;17145;49.902;8.680;2023-03-12T16:52:40;1;1;
30342;PMS5003;17145;49.902;8.680;2023-03-12T16:55:08;2;1;
30342;PMS5003;17145;49.902;8.680;2023-03-12T16:57:36;2;2;
30342;PMS5003;17145;49.902;8.680;2023-03-12T17:00:10;2;2;
30342;PMS5003;17145;49.902;8.680;2023-03-12T17:02:39;3;3;
30342;PMS5003;17145;49.902;8.680;2023-03-12T17:05:07;1;1;
30342;PMS5003;17145;49.902;8.680;2023-03-12T17:07:35;2;2;
30342;PMS5003;17145;49.902;8.680;2023-03-12T17:10:03;2;2;
30342;PMS5003;17145;49.902;8.680;2023-03-12T17:12:33;2;2;
30342;PMS5003;17145;49.902;8.680;2023-03-12T17:15:02;2;2;
30342;PMS5003;17145;49.902;8.680;2023-03-12T17:17:33;1;1;
30342;PMS5003;17145;49.902;8.680;2023-03-12T17:20:01;2;2;
30342;PMS5003;17145;49.902;8.680;2023-03-12T17:22:28;1;1;
30342;PMS5003;17145;49.902;8.680;2023-03-12T17:24:56;1;1;
30342;PMS5003;17145;49.902;8.680;2023-03-12T17:27:23;2;2;
30342;PMS5003;17145;49.902;8.680;2023-03-12T17:29:51;2;2;
30342;PMS5003;17145;49.902;8.680;2023-03-12T17:32:18;2;2;
30342;PMS5003;17145;49.902;8.680;2023-03-12T17:34:45;3;2;
30342;PMS5003;17145;49.902;8.680;2023-03-12T17:37:14;3;2;